KVLD/VLD METAR and TAF weather

Enter ICAO airport designator
Station Type Date Time Source
KVLD METAR 2021/05/15 01:53 UTC NOAA

KVLD 150153Z AUTO 12006KT 10SM CLR 19/09 A3019 RMK AO2 SLP232 T01940094


Station Type Date Time Source
KVLD Decoded METAR 2021/05/15 01:53 UTC NOAA

VALDOSTA REGIONAL AIRPORT, GA, United States (KVLD) 30-47N 083-16W
May 14, 2021 - 09:53 PM EDT / 2021.05.15 0153 UTC
Wind: from the ESE (120 degrees) at 7 MPH (6 KT):0
Visibility: 10 mile(s):0
Sky conditions: clear
Temperature: 66.9 F (19.4 C)
Dew Point: 48.9 F (9.4 C)
Relative Humidity: 52%
Pressure (altimeter): 30.19 in. Hg (1022 hPa)
ob: KVLD 150153Z AUTO 12006KT 10SM CLR 19/09 A3019 RMK AO2 SLP232 T01940094
cycle: 2

Station Type Date Time Source
KVLD TAF 2021/05/14 18:21 UTC NOAA

TAF KVLD 141720Z 1418/1518 05008G18KT P6SM FEW250
FM150100 05006KT P6SM SKC

Example: see airport list